Terminal Aerodrome Forecast
Issued by NWS

Home | Current Version | Previous Version | Text Only | Print | Product List | Glossary On
Versions: 1 2 3 4 5 6 7 8 9 10 11 12 13 14 15 16 17 18 19 20
000
FTUS46 KMFR 162300
TAFOTH
TAF
KOTH 162326Z 1700/1724 26009KT P6SM SCT150 OVC200
     FM170300 VRB03KT P6SM FEW080 OVC150
     FM172000 30009KT P6SM SCT090 OVC120=

USA.gov is the U.S. government's official web portal to all federal, state and local government web resources and services.